createdAt,value
2019-05-01T00:02:08.117Z,44.80
2019-05-01T00:04:45.630Z,45.10
2019-05-01T00:07:21.093Z,45.50
2019-05-01T00:09:50.478Z,45.70
2019-05-01T00:12:20.596Z,45.90
2019-05-01T00:14:49.889Z,45.90
2019-05-01T00:17:19.845Z,45.70
2019-05-01T00:19:49.157Z,45.40
2019-05-01T00:22:18.441Z,45.10
2019-05-01T00:24:47.744Z,44.80
2019-05-01T00:27:17.037Z,44.40
2019-05-01T00:29:46.389Z,44.00
2019-05-01T00:32:15.789Z,43.70
2019-05-01T00:34:45.065Z,43.60
2019-05-01T00:37:14.440Z,43.50
2019-05-01T00:39:43.714Z,43.40
2019-05-01T00:42:13.009Z,43.30
2019-05-01T00:44:42.305Z,43.20
2019-05-01T00:47:11.602Z,43.40
2019-05-01T00:49:40.853Z,43.50
2019-05-01T00:52:10.379Z,43.70
2019-05-01T00:54:41.212Z,43.90
2019-05-01T00:57:38.625Z,44.00
2019-05-01T01:00:27.160Z,44.20
2019-05-01T01:02:57.121Z,44.30
2019-05-01T01:05:26.432Z,44.40
2019-05-01T01:07:55.709Z,44.50
2019-05-01T01:10:25.021Z,44.80
2019-05-01T01:12:54.269Z,44.90
2019-05-01T01:15:23.716Z,44.90
2019-05-01T01:17:53.097Z,45.10
2019-05-01T01:20:22.460Z,45.20
2019-05-01T01:22:51.804Z,45.50
2019-05-01T01:25:21.220Z,45.50
2019-05-01T01:27:50.628Z,45.60
2019-05-01T01:30:20.396Z,45.70
2019-05-01T01:32:49.788Z,45.60
2019-05-01T01:35:19.104Z,45.50
2019-05-01T01:37:48.431Z,45.50
2019-05-01T01:40:18.040Z,45.60
2019-05-01T01:42:49.036Z,45.80
2019-05-01T01:45:34.485Z,45.90
2019-05-01T01:48:11.026Z,45.90
2019-05-01T01:50:42.360Z,45.90
2019-05-01T01:53:15.012Z,45.80
2019-05-01T01:55:44.687Z,45.70
2019-05-01T01:58:14.768Z,45.70
2019-05-01T02:01:21.739Z,46.30
2019-05-01T02:03:55.724Z,45.80
2019-05-01T02:06:24.997Z,46.40
2019-05-01T02:08:56.641Z,46.00
2019-05-01T02:11:25.871Z,46.00
2019-05-01T02:13:56.751Z,46.10
2019-05-01T02:16:26.536Z,46.30
2019-05-01T02:18:55.901Z,46.40
2019-05-01T02:21:25.173Z,46.40
2019-05-01T02:23:54.595Z,46.40
2019-05-01T02:26:25.823Z,46.40
2019-05-01T02:29:19.283Z,46.40
2019-05-01T02:31:50.980Z,46.40
2019-05-01T02:34:20.848Z,46.50
2019-05-01T02:36:52.015Z,46.60
2019-05-01T02:39:23.512Z,46.60
2019-05-01T02:41:54.951Z,46.70
2019-05-01T02:44:40.751Z,46.80
2019-05-01T02:47:13.284Z,46.90
2019-05-01T02:49:51.651Z,47.00
2019-05-01T02:52:23.447Z,47.20
2019-05-01T02:54:55.239Z,47.40
2019-05-01T02:57:26.112Z,47.60
2019-05-01T02:59:57.248Z,47.80
2019-05-01T03:02:28.234Z,47.90
2019-05-01T03:04:58.732Z,48.00
2019-05-01T03:07:31.396Z,48.00
2019-05-01T03:10:01.588Z,48.20
2019-05-01T03:12:33.500Z,48.00
2019-05-01T03:15:04.720Z,48.20
2019-05-01T03:17:49.255Z,48.90
2019-05-01T03:20:34.427Z,48.30
2019-05-01T03:23:25.975Z,48.30
2019-05-01T03:25:56.338Z,48.40
2019-05-01T03:28:25.799Z,48.60
2019-05-01T03:30:55.583Z,48.70
2019-05-01T03:33:25.168Z,48.70
2019-05-01T03:35:54.664Z,48.80
2019-05-01T03:38:24.308Z,48.90
2019-05-01T03:40:53.963Z,49.00
2019-05-01T03:43:23.425Z,49.10
2019-05-01T03:45:52.987Z,49.30
2019-05-01T03:48:22.562Z,49.40
2019-05-01T03:50:51.944Z,49.60
2019-05-01T03:53:21.213Z,49.90
2019-05-01T03:55:50.754Z,50.10
2019-05-01T03:58:20.267Z,50.20
2019-05-01T04:00:56.975Z,50.30
2019-05-01T04:03:30.163Z,50.40
2019-05-01T04:05:59.835Z,50.60
2019-05-01T04:08:29.594Z,50.70
2019-05-01T04:10:59.263Z,50.70
2019-05-01T04:13:29.058Z,50.80
2019-05-01T04:15:58.687Z,50.70
2019-05-01T04:18:28.482Z,50.80
2019-05-01T04:20:58.649Z,50.90
2019-05-01T04:23:28.246Z,50.80
2019-05-01T04:25:57.658Z,50.90
2019-05-01T04:28:40.628Z,50.90
2019-05-01T04:31:35.491Z,51.10
2019-05-01T04:34:10.049Z,51.30
2019-05-01T04:36:43.048Z,51.40
2019-05-01T04:39:12.610Z,51.50
2019-05-01T04:41:41.911Z,51.60
2019-05-01T04:44:11.218Z,51.70
2019-05-01T04:46:40.538Z,51.70
2019-05-01T04:49:09.892Z,51.70
2019-05-01T04:51:39.568Z,51.80
2019-05-01T04:54:09.115Z,51.80
2019-05-01T04:56:38.701Z,52.00
2019-05-01T04:59:08.183Z,51.90
2019-05-01T05:02:02.427Z,51.90
2019-05-01T05:04:31.969Z,51.90
2019-05-01T05:07:01.929Z,51.90
2019-05-01T05:09:46.013Z,52.10
2019-05-01T05:12:24.937Z,52.10
2019-05-01T05:14:59.121Z,52.10
2019-05-01T05:17:28.850Z,52.10
2019-05-01T05:19:58.289Z,52.20
2019-05-01T05:22:27.729Z,52.30
2019-05-01T05:24:57.033Z,52.20
2019-05-01T05:27:26.592Z,52.30
2019-05-01T05:29:58.156Z,52.30
2019-05-01T05:32:30.150Z,52.30
2019-05-01T05:35:00.656Z,52.30
2019-05-01T05:37:35.940Z,52.40
2019-05-01T05:40:05.860Z,52.40
2019-05-01T05:42:35.528Z,52.50
2019-05-01T05:45:05.256Z,52.30
2019-05-01T05:47:34.920Z,52.30
2019-05-01T05:50:04.520Z,52.30
2019-05-01T05:52:41.016Z,52.20
2019-05-01T05:55:29.485Z,52.10
2019-05-01T05:58:18.225Z,52.10
2019-05-01T06:01:07.807Z,52.00
2019-05-01T06:04:01.131Z,51.70
2019-05-01T06:06:40.080Z,51.40
2019-05-01T06:09:14.032Z,51.00
2019-05-01T06:12:04.992Z,50.60
2019-05-01T06:15:02.453Z,50.20
2019-05-01T06:17:48.161Z,49.80
2019-05-01T06:20:37.471Z,49.70
2019-05-01T06:23:28.520Z,49.40
2019-05-01T06:26:02.570Z,49.20
2019-05-01T06:28:32.126Z,48.70
2019-05-01T06:31:22.891Z,48.50
2019-05-01T06:33:53.089Z,48.40
2019-05-01T06:36:23.477Z,48.40
2019-05-01T06:38:51.555Z,48.20
2019-05-01T06:41:20.903Z,48.00
2019-05-01T06:44:02.402Z,48.00
2019-05-01T06:46:39.939Z,47.90
2019-05-01T06:49:24.278Z,47.60
2019-05-01T06:51:55.233Z,47.40
2019-05-01T06:54:27.235Z,47.20
2019-05-01T06:56:58.307Z,47.20
2019-05-01T06:59:31.287Z,47.00
2019-05-01T07:02:00.687Z,46.60
2019-05-01T07:04:32.200Z,46.20
2019-05-01T07:07:06.753Z,46.60
2019-05-01T07:09:37.291Z,45.90
2019-05-01T07:12:09.766Z,45.70
2019-05-01T07:14:39.250Z,45.50
2019-05-01T07:17:08.890Z,45.50
2019-05-01T07:19:57.426Z,45.60
2019-05-01T07:22:26.676Z,45.60
2019-05-01T07:24:59.013Z,45.10
2019-05-01T07:27:27.362Z,44.70
2019-05-01T07:29:59.912Z,44.40
2019-05-01T07:32:29.470Z,44.30
2019-05-01T07:35:02.040Z,44.20
2019-05-01T07:37:30.046Z,43.80
2019-05-01T07:40:00.354Z,43.60
2019-05-01T07:42:31.218Z,43.50
2019-05-01T07:45:20.546Z,43.30
2019-05-01T07:47:50.554Z,43.20
2019-05-01T07:50:23.878Z,43.20
2019-05-01T07:52:53.828Z,42.90
2019-05-01T07:55:36.087Z,42.80
2019-05-01T07:58:10.188Z,42.70
2019-05-01T08:01:18.114Z,42.60
2019-05-01T08:03:44.262Z,42.60
2019-05-01T08:06:16.343Z,42.90
2019-05-01T08:08:44.714Z,42.70
2019-05-01T08:11:14.022Z,42.20
2019-05-01T08:13:43.282Z,41.70
2019-05-01T08:16:12.969Z,41.80
2019-05-01T08:18:59.007Z,41.80
2019-05-01T08:22:03.027Z,41.50
2019-05-01T08:24:32.549Z,40.90
2019-05-01T08:27:01.898Z,40.70
2019-05-01T08:30:02.629Z,40.40
2019-05-01T08:32:56.953Z,39.80
2019-05-01T08:35:31.784Z,39.30
2019-05-01T08:38:00.321Z,38.70
2019-05-01T08:40:29.785Z,37.60
2019-05-01T08:42:59.101Z,36.90
2019-05-01T08:45:56.741Z,36.20
2019-05-01T08:48:36.032Z,35.60
2019-05-01T08:51:05.077Z,35.60
2019-05-01T08:53:34.381Z,35.70
2019-05-01T08:56:03.637Z,35.70
2019-05-01T08:58:33.029Z,35.10
2019-05-01T09:01:02.621Z,34.60
2019-05-01T09:03:31.961Z,35.10
2019-05-01T09:06:01.332Z,34.40
2019-05-01T09:08:32.076Z,34.30
2019-05-01T09:11:02.301Z,34.60
2019-05-01T09:13:32.052Z,34.40
2019-05-01T09:16:01.416Z,34.50
2019-05-01T09:18:30.852Z,34.50
2019-05-01T09:21:00.156Z,34.60
2019-05-01T09:23:29.437Z,34.40
2019-05-01T09:26:33.103Z,34.30
2019-05-01T09:29:06.032Z,34.20
2019-05-01T09:31:35.888Z,33.80
2019-05-01T09:34:05.792Z,33.30
2019-05-01T09:36:35.484Z,33.20
2019-05-01T09:39:06.419Z,33.00
2019-05-01T09:41:38.253Z,32.80
2019-05-01T09:44:10.612Z,32.70
2019-05-01T09:46:38.126Z,32.60
2019-05-01T09:49:07.704Z,32.00
2019-05-01T09:52:05.264Z,31.60
2019-05-01T09:54:59.651Z,31.00
2019-05-01T09:57:29.055Z,31.00
2019-05-01T09:59:58.360Z,30.80
2019-05-01T10:02:27.739Z,30.50
2019-05-01T10:04:57.111Z,30.20
2019-05-01T10:07:28.969Z,30.10
2019-05-01T10:09:57.457Z,30.20
2019-05-01T10:12:26.942Z,30.20
2019-05-01T10:14:56.151Z,30.70
2019-05-01T10:17:25.455Z,31.00
2019-05-01T10:19:54.835Z,30.80
2019-05-01T10:22:24.171Z,31.00
2019-05-01T10:24:53.493Z,30.30
2019-05-01T10:27:25.579Z,30.00
2019-05-01T10:30:13.869Z,29.80
2019-05-01T10:32:52.806Z,29.80
2019-05-01T10:35:41.519Z,29.70
2019-05-01T10:37:59.883Z,29.80
2019-05-01T10:40:32.356Z,29.80
2019-05-01T10:43:00.183Z,29.90
2019-05-01T10:45:29.512Z,30.00
2019-05-01T10:47:58.879Z,30.70
2019-05-01T10:50:28.439Z,30.20
2019-05-01T10:52:57.827Z,30.80
2019-05-01T10:55:27.214Z,31.20
2019-05-01T10:57:56.573Z,31.80
2019-05-01T11:00:25.895Z,31.10
2019-05-01T11:02:55.407Z,30.90
2019-05-01T11:05:24.730Z,30.50
2019-05-01T11:07:54.059Z,30.00
2019-05-01T11:10:23.350Z,29.30
2019-05-01T11:12:52.682Z,28.70
2019-05-01T11:15:22.259Z,28.80
2019-05-01T11:17:51.540Z,27.70
2019-05-01T11:20:20.866Z,27.30
2019-05-01T11:22:50.153Z,27.50
2019-05-01T11:25:20.658Z,27.80
2019-05-01T11:27:49.915Z,27.70
2019-05-01T11:30:19.400Z,27.70
2019-05-01T11:32:55.618Z,27.40
2019-05-01T11:35:50.207Z,26.70
2019-05-01T11:38:37.563Z,26.60
2019-05-01T11:41:11.694Z,26.60
2019-05-01T11:43:41.022Z,26.50
2019-05-01T11:46:10.516Z,26.30
2019-05-01T11:48:39.829Z,27.10
2019-05-01T11:51:09.126Z,25.70
2019-05-01T11:53:38.466Z,25.40
2019-05-01T11:56:07.752Z,25.10
2019-05-01T11:58:37.034Z,25.30
2019-05-01T12:01:07.130Z,25.80
2019-05-01T12:03:36.498Z,25.90
2019-05-01T12:06:05.902Z,26.00
2019-05-01T12:08:35.286Z,26.20
2019-05-01T12:11:06.214Z,26.20
2019-05-01T12:13:43.604Z,26.00
2019-05-01T12:16:25.546Z,25.70
2019-05-01T12:18:54.915Z,25.40
2019-05-01T12:21:24.299Z,25.00
2019-05-01T12:23:53.743Z,25.40
2019-05-01T12:26:22.950Z,24.80
2019-05-01T12:28:52.337Z,24.70
2019-05-01T12:31:21.711Z,24.70
2019-05-01T12:33:51.046Z,24.70
2019-05-01T12:36:20.424Z,24.60
2019-05-01T12:38:49.716Z,24.40
2019-05-01T12:41:41.009Z,24.60
2019-05-01T12:44:10.965Z,24.50
2019-05-01T12:46:58.741Z,24.60
2019-05-01T12:49:28.045Z,25.10
2019-05-01T12:52:09.890Z,25.80
2019-05-01T12:54:51.848Z,26.20
2019-05-01T12:57:20.481Z,26.20
2019-05-01T12:59:49.826Z,25.80
2019-05-01T13:02:19.196Z,25.90
2019-05-01T13:04:48.625Z,26.40
2019-05-01T13:07:17.920Z,26.90
2019-05-01T13:09:47.314Z,27.30
2019-05-01T13:12:16.645Z,27.70
2019-05-01T13:14:46.020Z,27.90
2019-05-01T13:17:15.344Z,28.10
2019-05-01T13:19:44.837Z,28.30
2019-05-01T13:22:14.153Z,28.60
2019-05-01T13:24:52.400Z,29.20
2019-05-01T13:27:34.276Z,30.20
2019-05-01T13:30:16.489Z,31.60
2019-05-01T13:32:50.737Z,32.40
2019-05-01T13:35:20.016Z,32.90
2019-05-01T13:37:49.384Z,33.30
2019-05-01T13:40:18.912Z,33.60
2019-05-01T13:42:48.312Z,33.70
2019-05-01T13:45:17.793Z,33.90
2019-05-01T13:47:47.164Z,34.00
2019-05-01T13:50:16.483Z,34.10
2019-05-01T13:52:45.881Z,33.80
2019-05-01T13:55:15.924Z,33.30
2019-05-01T13:57:45.320Z,33.20
2019-05-01T14:00:15.196Z,33.20
2019-05-01T14:02:44.472Z,33.30
2019-05-01T14:05:13.963Z,33.70
2019-05-01T14:07:43.388Z,34.20
2019-05-01T14:10:12.727Z,34.50
2019-05-01T14:12:42.035Z,34.90
2019-05-01T14:15:11.430Z,35.20
2019-05-01T14:17:40.735Z,35.40
2019-05-01T14:20:37.115Z,35.70
2019-05-01T14:23:11.852Z,36.00
2019-05-01T14:25:58.975Z,36.30
2019-05-01T14:28:28.371Z,36.80
2019-05-01T14:30:57.745Z,38.00
2019-05-01T14:33:27.011Z,37.80
2019-05-01T14:35:56.391Z,38.40
2019-05-01T14:38:25.642Z,38.60
2019-05-01T14:40:54.936Z,38.80
2019-05-01T14:43:24.305Z,38.80
2019-05-01T14:45:55.910Z,38.70
2019-05-01T14:48:24.618Z,38.60
2019-05-01T14:50:53.964Z,38.60
2019-05-01T14:53:23.343Z,38.90
2019-05-01T14:55:52.663Z,39.10
2019-05-01T14:58:22.019Z,39.60
2019-05-01T15:00:51.299Z,40.10
2019-05-01T15:03:20.687Z,40.80
2019-05-01T15:05:49.998Z,41.50
2019-05-01T15:08:19.359Z,42.10
2019-05-01T15:10:48.742Z,42.60
2019-05-01T15:13:28.358Z,43.20
2019-05-01T15:16:22.546Z,43.80
2019-05-01T15:19:03.947Z,44.20
2019-05-01T15:21:33.330Z,44.50
2019-05-01T15:24:02.671Z,44.80
2019-05-01T15:26:32.066Z,45.00
2019-05-01T15:29:01.430Z,45.30
2019-05-01T15:31:30.814Z,45.50
2019-05-01T15:34:00.070Z,45.70
2019-05-01T15:36:29.446Z,46.00
2019-05-01T15:38:59.218Z,46.20
2019-05-01T15:42:02.473Z,46.40
2019-05-01T15:44:34.614Z,46.70
2019-05-01T15:47:03.890Z,46.90
2019-05-01T15:49:33.729Z,47.40
2019-05-01T15:52:02.994Z,47.70
2019-05-01T15:54:32.309Z,48.10
2019-05-01T15:57:01.586Z,48.50
2019-05-01T15:59:30.926Z,48.90
2019-05-01T16:02:00.306Z,49.60
2019-05-01T16:04:29.694Z,51.90
2019-05-01T16:06:59.013Z,54.00
2019-05-01T16:09:28.505Z,55.70
2019-05-01T16:12:16.833Z,57.10
2019-05-01T16:14:48.245Z,57.90
2019-05-01T16:17:17.621Z,58.10
2019-05-01T16:19:46.876Z,58.20
2019-05-01T16:22:16.188Z,59.00
2019-05-01T16:24:45.581Z,58.70
2019-05-01T16:27:14.928Z,59.20
2019-05-01T16:29:44.329Z,59.50
2019-05-01T16:32:13.677Z,60.00
2019-05-01T16:34:43.010Z,60.30
2019-05-01T16:37:12.392Z,60.50
2019-05-01T16:39:50.649Z,60.80
2019-05-01T16:42:22.032Z,60.70
2019-05-01T16:44:51.413Z,60.50
2019-05-01T16:47:20.985Z,60.20
2019-05-01T16:49:50.245Z,59.80
2019-05-01T16:52:21.881Z,59.60
2019-05-01T16:54:59.048Z,59.40
2019-05-01T16:57:22.488Z,59.30
2019-05-01T16:59:51.825Z,59.10
2019-05-01T17:02:52.305Z,58.90
2019-05-01T17:05:46.565Z,58.80
2019-05-01T17:08:36.004Z,58.60
2019-05-01T17:10:57.136Z,58.60
2019-05-01T17:13:26.532Z,58.50
2019-05-01T17:15:55.988Z,58.30
2019-05-01T17:18:25.411Z,58.10
2019-05-01T17:20:54.728Z,58.00
2019-05-01T17:23:24.117Z,57.80
2019-05-01T17:25:53.457Z,57.60
2019-05-01T17:28:22.825Z,57.40
2019-05-01T17:30:57.063Z,57.50
2019-05-01T17:33:26.368Z,57.60
2019-05-01T17:35:55.709Z,57.60
2019-05-01T17:38:25.132Z,57.70
2019-05-01T17:40:54.448Z,57.80
2019-05-01T17:43:23.935Z,58.00
2019-05-01T17:45:53.596Z,58.10
2019-05-01T17:48:22.996Z,58.10
2019-05-01T17:50:55.056Z,58.10
2019-05-01T17:53:23.324Z,58.30
2019-05-01T17:55:52.599Z,58.30
2019-05-01T17:58:21.907Z,58.40
2019-05-01T18:01:14.508Z,58.50
2019-05-01T18:04:02.860Z,58.60
2019-05-01T18:06:34.432Z,58.70
2019-05-01T18:09:08.016Z,58.80
2019-05-01T18:11:36.043Z,58.90
2019-05-01T18:14:05.976Z,59.10
2019-05-01T18:16:35.481Z,59.20
2019-05-01T18:19:04.951Z,59.30
2019-05-01T18:21:34.335Z,59.40
2019-05-01T18:24:31.751Z,59.60
2019-05-01T18:27:20.491Z,59.80
2019-05-01T18:29:52.439Z,59.90
2019-05-01T18:32:28.835Z,59.90
2019-05-01T18:34:58.251Z,60.00
2019-05-01T18:37:35.141Z,59.90
2019-05-01T18:40:03.856Z,59.90
2019-05-01T18:42:33.267Z,59.90
2019-05-01T18:45:02.648Z,59.90
2019-05-01T18:47:32.044Z,59.90
2019-05-01T18:50:01.346Z,60.10
2019-05-01T18:52:30.988Z,60.40
2019-05-01T18:55:00.338Z,60.60
2019-05-01T18:57:29.703Z,60.80
2019-05-01T18:59:59.064Z,60.90
2019-05-01T19:02:28.484Z,61.00
2019-05-01T19:04:57.840Z,61.00
2019-05-01T19:07:27.607Z,61.00
2019-05-01T19:09:57.009Z,61.00
2019-05-01T19:12:26.275Z,60.90
2019-05-01T19:14:55.699Z,60.90
2019-05-01T19:17:25.094Z,61.00
2019-05-01T19:19:54.396Z,61.10
2019-05-01T19:22:23.680Z,61.10
2019-05-01T19:24:53.052Z,61.20
2019-05-01T19:27:24.272Z,61.30
2019-05-01T19:29:53.750Z,61.30
2019-05-01T19:32:23.823Z,61.40
2019-05-01T19:34:53.075Z,61.40
2019-05-01T19:37:24.017Z,61.50
2019-05-01T19:39:54.993Z,61.60
2019-05-01T19:42:24.531Z,61.80
2019-05-01T19:44:56.426Z,61.80
2019-05-01T19:47:24.957Z,61.80
2019-05-01T19:49:54.655Z,61.80
2019-05-01T19:52:24.155Z,61.70
2019-05-01T19:54:53.607Z,62.50
2019-05-01T19:57:22.884Z,61.70
2019-05-01T19:59:52.178Z,61.70
2019-05-01T20:02:22.095Z,61.70
2019-05-01T20:04:52.569Z,61.70
2019-05-01T20:07:22.021Z,61.80
2019-05-01T20:09:57.163Z,62.00
2019-05-01T20:12:22.404Z,62.20
2019-05-01T20:14:51.823Z,62.30
2019-05-01T20:17:21.193Z,62.50
2019-05-01T20:19:50.521Z,62.80
2019-05-01T20:22:19.835Z,63.10
2019-05-01T20:24:49.218Z,63.10
2019-05-01T20:27:18.514Z,63.20
2019-05-01T20:29:47.911Z,63.40
2019-05-01T20:32:21.154Z,63.30
2019-05-01T20:34:52.632Z,63.40
2019-05-01T20:37:19.146Z,63.60
2019-05-01T20:39:48.450Z,63.70
2019-05-01T20:42:17.718Z,63.60
2019-05-01T20:44:47.022Z,63.60
2019-05-01T20:47:33.716Z,63.60
2019-05-01T20:49:47.514Z,63.60
2019-05-01T20:52:16.900Z,63.50
2019-05-01T20:54:46.234Z,63.70
2019-05-01T20:57:29.025Z,63.80
2019-05-01T20:59:58.398Z,63.70
2019-05-01T21:02:27.770Z,63.70
2019-05-01T21:05:15.138Z,63.80
2019-05-01T21:07:56.691Z,64.00
2019-05-01T21:10:29.907Z,64.00
2019-05-01T21:12:59.162Z,63.90
2019-05-01T21:15:28.629Z,63.90
2019-05-01T21:17:57.922Z,64.00
2019-05-01T21:20:27.506Z,64.00
2019-05-01T21:22:56.810Z,64.00
2019-05-01T21:25:26.238Z,64.10
2019-05-01T21:27:55.538Z,64.10
2019-05-01T21:30:24.913Z,64.20
2019-05-01T21:32:54.274Z,64.20
2019-05-01T21:35:24.008Z,64.30
2019-05-01T21:37:53.465Z,64.40
2019-05-01T21:40:23.081Z,64.40
2019-05-01T21:42:55.724Z,64.60
2019-05-01T21:45:23.261Z,64.70
2019-05-01T21:47:52.913Z,64.70
2019-05-01T21:50:26.124Z,64.60
2019-05-01T21:52:53.768Z,64.60
2019-05-01T21:55:25.787Z,64.50
2019-05-01T21:57:55.099Z,64.50
2019-05-01T22:00:26.552Z,64.60
2019-05-01T22:02:55.808Z,64.70
2019-05-01T22:05:24.601Z,64.80
2019-05-01T22:07:53.977Z,65.00
2019-05-01T22:10:26.611Z,65.00
2019-05-01T22:12:54.289Z,65.00
2019-05-01T22:15:29.568Z,65.10
2019-05-01T22:18:10.576Z,65.10
2019-05-01T22:20:44.201Z,65.00
2019-05-01T22:23:17.042Z,65.00
2019-05-01T22:25:49.492Z,65.10
2019-05-01T22:28:26.729Z,65.10
2019-05-01T22:31:09.408Z,65.10
2019-05-01T22:33:39.176Z,65.10
2019-05-01T22:36:08.820Z,65.00
2019-05-01T22:38:38.212Z,65.10
2019-05-01T22:41:10.827Z,65.10
2019-05-01T22:43:40.221Z,65.20
2019-05-01T22:46:14.784Z,65.00
2019-05-01T22:48:44.145Z,65.00
2019-05-01T22:51:19.361Z,64.90
2019-05-01T22:53:54.400Z,64.80
2019-05-01T22:56:24.972Z,64.80
2019-05-01T22:58:54.379Z,64.80
2019-05-01T23:01:24.756Z,64.70
2019-05-01T23:04:16.665Z,64.70
2019-05-01T23:06:43.201Z,64.70
2019-05-01T23:09:14.057Z,64.60
2019-05-01T23:11:45.543Z,64.70
2019-05-01T23:14:15.184Z,64.70
2019-05-01T23:16:51.452Z,64.70
2019-05-01T23:19:22.913Z,65.60
2019-05-01T23:21:52.644Z,64.80
2019-05-01T23:24:22.071Z,64.80
2019-05-01T23:26:51.827Z,64.90
2019-05-01T23:29:22.292Z,65.00
2019-05-01T23:31:51.627Z,65.10
2019-05-01T23:34:21.082Z,65.30
2019-05-01T23:36:51.967Z,65.50
2019-05-01T23:39:21.235Z,65.60
2019-05-01T23:41:50.659Z,65.70
2019-05-01T23:44:20.016Z,65.80
2019-05-01T23:46:49.399Z,65.90
2019-05-01T23:49:18.827Z,66.00
2019-05-01T23:51:48.155Z,66.20
2019-05-01T23:54:17.435Z,66.10
2019-05-01T23:56:46.687Z,65.90
2019-05-01T23:59:16.071Z,65.90
